Time;durP1;ratioP1;P1;durP2;ratioP2;P2;SDS_P1;SDS_P2;PMS_P1;PMS_P2;Temp;Humidity;BMP_temperature;BMP_pressure;BME280_temperature;BME280_humidity;BME280_pressure;Samples;Min_cycle;Max_cycle;Signal;HPM_P1;HPM_P2
2021/11/12 00:12:38;;;;;;;58.33;32.60;;;6.10;98.20;;;;;;4907607;29;20055;-81
2021/11/12 00:15:04;;;;;;;66.13;35.60;;;5.90;98.00;;;;;;4909910;29;20053;-80
2021/11/12 00:17:32;;;;;;;60.67;33.77;;;5.70;98.20;;;;;;4910606;29;20032;-81
2021/11/12 00:20:00;;;;;;;54.13;31.67;;;5.70;98.50;;;;;;4892753;29;20132;-78
2021/11/12 00:22:27;;;;;;;53.57;32.07;;;5.50;98.30;;;;;;4908487;29;20096;-80
2021/11/12 00:24:54;;;;;;;56.47;30.97;;;5.40;98.20;;;;;;4885812;29;20048;-80
2021/11/12 00:27:22;;;;;;;55.00;30.83;;;5.40;98.50;;;;;;4901203;29;20418;-79
2021/11/12 00:32:24;;;;;;;55.33;30.30;;;5.30;98.50;;;;;;4901779;29;20053;-79
2021/11/12 00:42:20;;;;;;;55.27;32.13;;;5.40;99.50;;;;;;4901340;29;20041;-80
2021/11/12 00:44:58;;;;;;;;;;;5.60;99.60;;;;;;4902280;29;20378;-78
2021/11/12 00:47:27;;;;;;;47.00;26.87;;;5.80;99.50;;;;;;4901001;29;19915;-81
2021/11/12 00:52:44;;;;;;;50.67;27.73;;;5.60;98.60;;;;;;4900978;29;20056;-81
2021/11/12 00:55:10;;;;;;;50.27;29.10;;;5.30;98.40;;;;;;4901186;29;20041;-81
2021/11/12 00:57:36;;;;;;;55.07;30.40;;;5.10;98.50;;;;;;4886067;29;20044;-80
2021/11/12 01:00:05;;;;;;;59.97;31.77;;;5.10;98.80;;;;;;4900896;29;20497;-81
2021/11/12 01:02:32;;;;;;;51.93;30.07;;;5.20;99.20;;;;;;4885611;29;20048;-80
2021/11/12 01:04:58;;;;;;;44.13;27.37;;;5.20;98.90;;;;;;4885848;29;20545;-81
2021/11/12 01:07:24;;;;;;;44.47;27.80;;;4.90;98.60;;;;;;4900739;29;20087;-80
2021/11/12 01:09:50;;;;;;;53.40;31.47;;;4.70;98.50;;;;;;4900603;29;20045;-78
2021/11/12 01:12:16;;;;;;;54.10;30.80;;;4.70;98.80;;;;;;4884727;29;20060;-80
2021/11/12 01:14:42;;;;;;;50.30;30.67;;;4.60;98.70;;;;;;4900325;29;20037;-81
2021/11/12 01:17:07;;;;;;;55.53;32.13;;;4.60;98.80;;;;;;4900305;29;20052;-79
2021/11/12 01:19:33;;;;;;;54.10;32.03;;;4.50;98.80;;;;;;4885287;29;20067;-81
2021/11/12 01:21:59;;;;;;;67.10;36.53;;;4.40;98.80;;;;;;4900538;29;20056;-81
2021/11/12 01:24:25;;;;;;;67.83;37.93;;;4.30;98.90;;;;;;4900359;29;20029;-81
2021/11/12 01:26:50;;;;;;;73.33;39.60;;;4.20;98.90;;;;;;4901636;29;20108;-80
2021/11/12 01:29:17;;;;;;;76.10;40.53;;;4.20;99.10;;;;;;4900443;29;20179;-79
2021/11/12 01:31:42;;;;;;;80.57;43.60;;;4.20;99.20;;;;;;4885926;29;20074;-81
2021/11/12 01:34:10;;;;;;;84.57;41.50;;;4.40;99.60;;;;;;4884932;29;20044;-80
2021/11/12 01:36:41;;;;;;;64.70;36.07;;;4.60;99.70;;;;;;4900260;29;20409;-80
2021/11/12 01:39:16;;;;;;;65.37;33.80;;;4.70;99.60;;;;;;4901488;29;20044;-80
2021/11/12 01:41:47;;;;;;;66.57;36.63;;;4.60;99.10;;;;;;4900760;29;20028;-80
2021/11/12 01:44:14;;;;;;;62.97;37.37;;;4.50;99.20;;;;;;4900526;29;20089;-80
2021/11/12 01:47:06;;;;;;;77.83;42.10;;;4.50;99.20;;;;;;4902011;29;20497;-80
2021/11/12 01:49:42;;;;;;;79.28;42.03;;;4.40;99.20;;;;;;4900392;29;20052;-80
2021/11/12 01:55:07;;;;;;;87.38;45.97;;;4.30;99.40;;;;;;4899194;29;20041;-80
2021/11/12 02:00:24;;;;;;;83.53;44.27;;;4.20;99.50;;;;;;4874000;29;20053;-80
2021/11/12 02:02:51;;;;;;;85.27;45.33;;;4.20;99.60;;;;;;4899717;29;20465;-81
2021/11/12 02:05:18;;;;;;;92.83;47.47;;;4.30;99.60;;;;;;4886812;29;20040;-80
2021/11/12 02:07:44;;;;;;;89.70;46.83;;;4.40;99.80;;;;;;4890561;29;20061;-88
2021/11/12 02:10:17;;;;;;;78.27;44.93;;;4.50;99.60;;;;;;4910222;29;20041;-86
2021/11/12 02:12:57;;;;;;;;;;;4.50;99.40;;;;;;4911385;29;20370;-86
2021/11/12 02:15:23;;;;;;;88.93;45.07;;;4.40;99.30;;;;;;4911784;29;19907;-87
2021/11/12 02:18:02;;;;;;;89.00;48.13;;;4.30;99.40;;;;;;4911914;29;20032;-86
2021/11/12 02:20:36;;;;;;;88.17;47.50;;;4.30;99.50;;;;;;4911165;29;20036;-88
2021/11/12 02:23:03;;;;;;;86.27;46.73;;;4.30;99.60;;;;;;4911268;29;20032;-85
2021/11/12 02:25:41;;;;;;;93.63;49.03;;;4.30;99.50;;;;;;4897676;29;20044;-88
2021/11/12 02:28:16;;;;;;;94.00;49.57;;;4.30;99.60;;;;;;4912650;29;20041;-84
2021/11/12 02:30:50;;;;;;;92.33;48.90;;;4.20;99.60;;;;;;4898058;29;20053;-88
2021/11/12 02:33:25;;;;;;;104.53;51.10;;;4.20;99.60;;;;;;4913812;29;20120;-86
2021/11/12 02:36:12;;;;;;;94.07;50.97;;;4.20;99.60;;;;;;4914312;29;20497;-86
2021/11/12 02:38:42;;;;;;;90.67;49.63;;;4.20;99.70;;;;;;4911581;29;20385;-84
2021/11/12 02:41:08;;;;;;;99.30;51.93;;;4.30;99.70;;;;;;4914495;29;20029;-86
2021/11/12 02:43:34;;;;;;;104.47;52.87;;;4.20;99.70;;;;;;4917278;29;20036;-85
2021/11/12 02:46:05;;;;;;;101.43;50.50;;;4.20;99.70;;;;;;4920799;29;20119;-79
2021/11/12 02:48:39;;;;;;;96.47;50.87;;;4.20;99.70;;;;;;4922322;29;20073;-85
2021/11/12 02:51:09;;;;;;;87.67;47.63;;;4.30;99.90;;;;;;4921284;29;20048;-86
2021/11/12 02:53:35;;;;;;;86.73;46.70;;;4.30;99.80;;;;;;4920895;29;20036;-85
2021/11/12 02:56:07;;;;;;;95.97;49.70;;;4.30;99.60;;;;;;4920524;29;20126;-86
2021/11/12 02:58:33;;;;;;;90.72;48.67;;;4.10;99.50;;;;;;4921241;29;20028;-86
2021/11/12 03:00:59;;;;;;;90.93;48.90;;;4.00;99.60;;;;;;4905477;29;20028;-85
2021/11/12 03:03:25;;;;;;;95.77;50.20;;;4.00;99.70;;;;;;4920675;29;20130;-87
2021/11/12 03:05:51;;;;;;;94.83;48.47;;;4.00;99.80;;;;;;4904701;29;20041;-86
2021/11/12 03:08:17;;;;;;;86.40;48.63;;;4.00;99.70;;;;;;4901285;29;20037;-87
2021/11/12 03:10:44;;;;;;;83.63;46.77;;;4.00;99.60;;;;;;4915065;29;20084;-86
2021/11/12 03:13:10;;;;;;;86.00;47.23;;;3.90;99.60;;;;;;4913470;29;20037;-86
2021/11/12 03:15:36;;;;;;;90.83;48.77;;;3.90;99.60;;;;;;4897043;29;20037;-85
2021/11/12 03:18:02;;;;;;;83.33;48.23;;;3.90;99.70;;;;;;4911900;29;20043;-85
2021/11/12 03:20:30;;;;;;;86.60;47.40;;;3.90;99.70;;;;;;4910842;29;20051;-83
2021/11/12 03:25:53;;;;;;;90.63;49.13;;;4.10;99.90;;;;;;4912306;29;20040;-87
2021/11/12 03:31:18;;;;;;;81.00;45.43;;;4.40;99.90;;;;;;4910339;29;20052;-86
2021/11/12 04:01:16;;;;;;;78.30;43.43;;;3.90;99.10;;;;;;4905808;29;20052;-86
2021/11/12 05:46:41;;;;;;;76.53;39.67;;;2.40;99.90;;;;;;4910200;29;20051;-85
2021/11/12 05:51:42;;;;;;;71.43;38.90;;;2.30;99.80;;;;;;4901176;29;20056;-85
2021/11/12 05:56:55;;;;;;;73.10;39.33;;;2.20;99.80;;;;;;4901903;29;20413;-84
2021/11/12 05:59:23;;;;;;;66.77;36.77;;;2.10;99.90;;;;;;4901188;29;20402;-84
2021/11/12 06:01:49;;;;;;;70.23;36.63;;;2.00;99.90;;;;;;4901042;29;20104;-83
2021/11/12 06:04:15;;;;;;;74.87;39.60;;;1.90;99.90;;;;;;4884685;29;20045;-84
2021/11/12 06:06:42;;;;;;;69.33;39.20;;;1.80;99.90;;;;;;4900922;29;20037;-83
2021/11/12 06:09:08;;;;;;;75.00;39.50;;;1.70;99.90;;;;;;4901709;29;20041;-83
2021/11/12 06:11:35;;;;;;;75.07;39.57;;;1.70;99.90;;;;;;4901866;29;20056;-83
2021/11/12 06:14:01;;;;;;;77.60;39.40;;;1.70;99.90;;;;;;4900287;29;20051;-83
2021/11/12 06:16:27;;;;;;;73.93;37.23;;;1.70;99.90;;;;;;4901322;29;20052;-81
2021/11/12 06:18:54;;;;;;;80.87;39.10;;;1.60;99.90;;;;;;4900590;29;20105;-83
2021/11/12 06:21:21;;;;;;;70.97;37.93;;;1.80;99.90;;;;;;4900684;29;20055;-82
2021/11/12 06:23:46;;;;;;;64.17;34.33;;;2.00;99.90;;;;;;4900897;29;20354;-83
2021/11/12 06:26:12;;;;;;;68.10;35.33;;;1.90;99.90;;;;;;4900342;29;20044;-83
2021/11/12 06:28:38;;;;;;;69.70;38.33;;;1.90;99.90;;;;;;4900563;29;20393;-82
2021/11/12 06:31:04;;;;;;;97.10;37.97;;;1.90;99.90;;;;;;4900684;29;20068;-82
2021/11/12 06:33:31;;;;;;;60.10;33.87;;;2.10;99.90;;;;;;4884907;29;20396;-81
2021/11/12 06:35:58;;;;;;;57.00;32.70;;;2.10;99.90;;;;;;4900221;29;20036;-82
2021/11/12 06:38:27;;;;;;;56.60;32.73;;;2.10;99.90;;;;;;4902077;29;20045;-82
2021/11/12 06:40:55;;;;;;;54.93;32.30;;;2.00;99.90;;;;;;4901820;29;20055;-81
2021/11/12 06:51:21;;;;;;;56.17;30.37;;;1.80;99.90;;;;;;4900921;29;20339;-80
2021/11/12 06:53:48;;;;;;;67.70;34.20;;;1.80;99.90;;;;;;4901406;29;20047;-81
2021/11/12 06:56:13;;;;;;;59.90;32.27;;;1.80;99.90;;;;;;4899790;29;20036;-81
2021/11/12 06:58:40;;;;;;;68.73;33.93;;;1.90;99.90;;;;;;4899281;29;20070;-81
2021/11/12 07:01:07;;;;;;;64.40;33.60;;;2.10;99.90;;;;;;4900133;29;20052;-80
2021/11/12 07:03:34;;;;;;;58.77;32.17;;;2.20;99.90;;;;;;4899298;29;20037;-80
2021/11/12 07:06:01;;;;;;;66.00;32.27;;;2.30;99.90;;;;;;4899465;29;20128;-80
2021/11/12 07:08:27;;;;;;;65.40;34.23;;;2.40;99.90;;;;;;4900723;29;20040;-81
2021/11/12 07:10:53;;;;;;;66.13;32.07;;;2.60;99.90;;;;;;4898849;29;20100;-81
2021/11/12 07:13:29;;;;;;;66.77;33.60;;;2.70;99.90;;;;;;4884412;29;20049;-82
2021/11/12 07:15:58;;;;;;;66.53;32.07;;;2.90;99.90;;;;;;4900739;29;20056;-81
2021/11/12 07:18:28;;;;;;;65.33;33.13;;;3.10;99.90;;;;;;4898382;29;20131;-82
2021/11/12 07:20:55;;;;;;;62.27;30.97;;;3.30;99.90;;;;;;4898696;29;20477;-83
2021/11/12 07:23:23;;;;;;;58.93;30.40;;;3.40;99.90;;;;;;4899979;29;20036;-83
2021/11/12 07:25:50;;;;;;;60.60;31.07;;;3.60;99.90;;;;;;4883572;29;20127;-83
2021/11/12 07:28:16;;;;;;;58.93;30.93;;;3.60;99.90;;;;;;4899879;29;20079;-83
2021/11/12 07:30:42;;;;;;;183.80;29.13;;;3.70;99.90;;;;;;4898570;29;20065;-83
2021/11/12 07:33:10;;;;;;;191.80;30.10;;;3.70;99.90;;;;;;4883454;29;20051;-82
2021/11/12 07:35:46;;;;;;;202.50;29.60;;;3.40;99.00;;;;;;4898920;29;20033;-82
2021/11/12 07:38:34;;;;;;;154.50;31.50;;;3.00;98.80;;;;;;4900669;29;20171;-82
2021/11/12 07:41:14;;;;;;;118.37;31.80;;;2.80;99.10;;;;;;4900087;29;20045;-83
2021/11/12 07:46:45;;;;;;;79.23;33.00;;;2.80;99.60;;;;;;4898866;29;20047;-83
2021/11/12 07:49:12;;;;;;;170.83;34.20;;;2.90;99.80;;;;;;4899788;29;20123;-83
2021/11/12 07:51:40;;;;;;;199.07;35.57;;;3.00;99.70;;;;;;4899666;29;20056;-84
2021/11/12 07:54:06;;;;;;;130.03;30.83;;;3.10;99.90;;;;;;4899793;29;20041;-83
2021/11/12 07:56:32;;;;;;;292.97;32.90;;;3.00;99.30;;;;;;4898395;29;20032;-83
2021/11/12 07:58:58;;;;;;;278.03;32.40;;;3.00;99.40;;;;;;4898233;29;20132;-82
2021/11/12 08:01:24;;;;;;;113.57;30.13;;;2.90;99.20;;;;;;4897921;29;20037;-82
2021/11/12 08:03:53;;;;;;;225.43;31.53;;;2.80;99.10;;;;;;4898120;29;20040;-83
2021/11/12 08:06:19;;;;;;;200.53;30.33;;;2.90;99.30;;;;;;4882968;29;20036;-82
2021/11/12 08:08:57;;;;;;;193.57;27.93;;;3.00;99.40;;;;;;4899410;29;20044;-81
2021/11/12 08:11:32;;;;;;;161.27;31.23;;;2.80;99.00;;;;;;4898636;29;20099;-80
2021/11/12 08:14:24;;;;;;;143.17;27.87;;;2.80;99.20;;;;;;4883166;29;20048;-82
2021/11/12 08:19:28;;;;;;;306.87;30.77;;;2.80;99.00;;;;;;4899181;29;20075;-81
2021/11/12 08:43:02;;;;;;;351.30;39.20;;;2.50;99.40;;;;;;4898941;29;20132;-80
2021/11/12 08:45:36;;;;;;;160.37;30.33;;;2.60;99.60;;;;;;4898670;29;20040;-79
2021/11/12 08:48:09;;;;;;;157.03;33.00;;;2.70;99.60;;;;;;4897466;29;20036;-81
2021/11/12 08:50:36;;;;;;;189.98;32.80;;;2.70;99.50;;;;;;4898800;29;20052;-82
2021/11/12 08:53:10;;;;;;;204.87;34.20;;;2.80;99.60;;;;;;4882401;29;20036;-80
2021/11/12 08:55:37;;;;;;;142.60;34.07;;;2.90;99.60;;;;;;4898042;29;20037;-81
2021/11/12 08:58:05;;;;;;;167.43;35.70;;;2.90;99.50;;;;;;4901001;29;20051;-82
2021/11/12 09:00:31;;;;;;;198.23;34.53;;;3.00;99.70;;;;;;4899461;29;20042;-81
2021/11/12 09:02:58;;;;;;;122.70;35.47;;;3.00;99.40;;;;;;4897264;29;20036;-81
2021/11/12 09:05:25;;;;;;;189.33;33.50;;;3.10;99.60;;;;;;4898623;29;20040;-82
2021/11/12 09:07:52;;;;;;;158.03;32.10;;;3.10;99.50;;;;;;4882184;29;20085;-81
2021/11/12 09:10:19;;;;;;;86.57;37.70;;;3.10;99.30;;;;;;4897351;29;20096;-80
2021/11/12 09:12:49;;;;;;;87.80;39.27;;;3.20;99.50;;;;;;4898651;29;20068;-83
2021/11/12 09:15:23;;;;;;;141.93;35.93;;;3.50;99.90;;;;;;4898273;29;20040;-81
2021/11/12 09:17:49;;;;;;;285.73;36.77;;;3.70;99.70;;;;;;4899145;29;20040;-80
2021/11/12 09:20:16;;;;;;;159.77;35.80;;;3.70;99.40;;;;;;4897147;29;20063;-82
2021/11/12 09:22:41;;;;;;;87.90;40.13;;;3.70;99.10;;;;;;4898131;29;20033;-83
2021/11/12 09:25:09;;;;;;;126.43;38.97;;;3.70;99.30;;;;;;4898559;29;20597;-83
2021/11/12 09:27:35;;;;;;;70.30;35.97;;;4.10;99.80;;;;;;4883386;29;20147;-82
2021/11/12 09:30:09;;;;;;;88.20;34.57;;;4.10;99.10;;;;;;4897390;29;20072;-81
2021/11/12 09:32:35;;;;;;;104.33;34.50;;;4.20;98.90;;;;;;4897684;29;20090;-83
2021/11/12 09:35:02;;;;;;;77.00;33.80;;;4.20;98.90;;;;;;4897442;29;20119;-81
2021/11/12 09:37:28;;;;;;;74.23;35.67;;;4.20;98.60;;;;;;4899291;29;20065;-82
2021/11/12 09:39:56;;;;;;;74.03;36.33;;;4.10;98.50;;;;;;4897537;29;20056;-80
2021/11/12 09:42:28;;;;;;;60.80;34.60;;;4.20;98.60;;;;;;4897505;29;20127;-82
2021/11/12 09:44:54;;;;;;;66.13;35.80;;;4.20;98.30;;;;;;4898390;29;20196;-81
2021/11/12 09:47:24;;;;;;;68.70;38.00;;;4.20;98.30;;;;;;4881836;29;20032;-81
2021/11/12 09:49:52;;;;;;;71.30;40.57;;;4.30;98.60;;;;;;4882232;29;20048;-82
2021/11/12 09:52:18;;;;;;;66.47;34.53;;;4.60;98.90;;;;;;4896950;29;20043;-81
2021/11/12 09:54:44;;;;;;;65.60;34.60;;;4.80;98.50;;;;;;4881666;29;20139;-84
2021/11/12 09:57:11;;;;;;;63.57;34.87;;;4.80;97.80;;;;;;4899928;29;20052;-84
2021/11/12 09:59:37;;;;;;;63.17;35.33;;;4.80;97.70;;;;;;4886584;29;20045;-81
2021/11/12 10:02:05;;;;;;;64.90;36.90;;;4.70;97.50;;;;;;4902064;29;20061;-85
2021/11/12 10:04:34;;;;;;;64.70;37.60;;;4.70;97.40;;;;;;4896814;29;20032;-84
2021/11/12 10:07:00;;;;;;;60.93;35.60;;;4.70;97.70;;;;;;4880976;29;20041;-84
2021/11/12 10:09:26;;;;;;;63.73;34.27;;;4.80;97.80;;;;;;4896678;29;20048;-84
2021/11/12 10:11:56;;;;;;;61.40;35.40;;;4.90;97.70;;;;;;4900175;29;20056;-83
2021/11/12 10:14:31;;;;;;;69.87;39.30;;;5.00;97.30;;;;;;4899384;29;20036;-83
2021/11/12 10:16:58;;;;;;;69.57;40.03;;;5.00;97.30;;;;;;4903197;29;20037;-82
2021/11/12 10:19:25;;;;;;;65.83;38.63;;;5.10;97.80;;;;;;4908028;29;20512;-85
2021/11/12 10:22:01;;;;;;;65.10;37.37;;;5.20;97.90;;;;;;4909769;29;20032;-86
2021/11/12 10:24:36;;;;;;;63.47;38.33;;;5.40;97.70;;;;;;4914371;29;20048;-86
2021/11/12 10:27:12;;;;;;;48.27;32.10;;;5.90;97.40;;;;;;4915979;29;20051;-82
2021/11/12 10:29:48;;;;;;;51.47;34.60;;;6.30;96.30;;;;;;4906542;29;20045;-86
2021/11/12 10:32:28;;;;;;;47.87;30.80;;;6.60;95.60;;;;;;4906205;29;20040;-88
2021/11/12 10:34:58;;;;;;;42.47;27.87;;;7.20;95.90;;;;;;4905508;29;20079;-88
2021/11/12 10:37:31;;;;;;;35.27;25.60;;;7.80;93.70;;;;;;4906306;29;20032;-86
2021/11/12 10:40:11;;;;;;;36.80;26.23;;;8.30;91.20;;;;;;4906009;29;20044;-90
2021/11/12 10:42:39;;;;;;;35.43;25.47;;;8.50;90.20;;;;;;4904607;29;20056;-85
2021/11/12 10:45:14;;;;;;;34.23;24.57;;;8.80;89.10;;;;;;4908241;29;20016;-90
2021/11/12 10:47:50;;;;;;;36.43;25.50;;;8.90;87.60;;;;;;4903608;29;20044;-89
2021/11/12 10:50:17;;;;;;;36.13;25.47;;;9.10;88.40;;;;;;4905386;29;20051;-88
2021/11/12 10:52:43;;;;;;;35.50;26.13;;;9.30;87.50;;;;;;4901480;29;20093;-86
2021/11/12 10:55:12;;;;;;;37.83;25.43;;;9.00;85.10;;;;;;4902060;29;20513;-85
2021/11/12 10:57:53;;;;;;;37.50;26.20;;;8.90;86.80;;;;;;4902367;29;20033;-84
2021/11/12 11:00:35;;;;;;;42.20;28.27;;;8.50;86.40;;;;;;4901972;29;20040;-84
2021/11/12 11:03:02;;;;;;;56.40;31.63;;;8.30;88.10;;;;;;4904280;29;20041;-81
2021/11/12 11:05:34;;;;;;;42.97;28.40;;;7.80;89.00;;;;;;4905345;29;20043;-86
2021/11/12 11:08:02;;;;;;;47.43;29.43;;;7.70;91.40;;;;;;4904160;29;20504;-86
2021/11/12 11:10:35;;;;;;;41.03;25.27;;;8.10;91.70;;;;;;4906023;29;20044;-87
2021/11/12 11:13:09;;;;;;;44.85;28.83;;;8.50;90.90;;;;;;4905963;29;20139;-85
2021/11/12 11:15:45;;;;;;;37.87;27.27;;;8.70;90.00;;;;;;4905497;29;20043;-87
2021/11/12 11:18:28;;;;;;;37.60;25.63;;;8.70;88.00;;;;;;4906756;29;20056;-89
2021/11/12 11:23:51;;;;;;;35.28;24.50;;;9.00;86.80;;;;;;4911237;29;20061;-87
2021/11/12 11:26:21;;;;;;;39.00;25.23;;;8.90;86.20;;;;;;4909134;29;20040;-87
2021/11/12 11:28:48;;;;;;;38.53;26.20;;;8.80;87.00;;;;;;4911930;29;20033;-88
2021/11/12 11:31:15;;;;;;;37.53;25.63;;;8.60;87.40;;;;;;4911082;29;20039;-80
2021/11/12 11:33:43;;;;;;;36.87;26.57;;;8.50;88.60;;;;;;4893884;29;20043;-86
2021/11/12 11:36:10;;;;;;;36.07;26.13;;;8.60;88.70;;;;;;4907294;29;20048;-85
2021/11/12 11:38:39;;;;;;;38.60;26.40;;;8.70;89.50;;;;;;4904394;29;20139;-87
2021/11/12 11:41:08;;;;;;;40.40;26.20;;;8.80;89.30;;;;;;4905072;29;20136;-80
2021/11/12 11:43:34;;;;;;;35.70;25.87;;;8.80;90.10;;;;;;4906760;29;20037;-87
2021/11/12 11:46:07;;;;;;;41.23;27.23;;;8.90;89.80;;;;;;4905950;29;20037;-88
2021/11/12 11:48:38;;;;;;;40.83;27.30;;;8.80;89.20;;;;;;4904822;29;20052;-86
2021/11/12 11:51:06;;;;;;;39.73;27.47;;;8.80;89.30;;;;;;4889508;29;20135;-88
2021/11/12 11:53:44;;;;;;;39.87;27.70;;;8.70;89.60;;;;;;4903341;29;20092;-87
2021/11/12 11:56:34;;;;;;;42.87;27.90;;;8.80;90.00;;;;;;4904486;29;20469;-84
2021/11/12 11:59:02;;;;;;;38.20;26.43;;;8.80;89.90;;;;;;4906117;29;20063;-85
2021/11/12 12:01:33;;;;;;;39.00;26.83;;;8.70;89.20;;;;;;4904864;29;20075;-85
2021/11/12 12:04:10;;;;;;;36.40;24.70;;;8.70;90.10;;;;;;4902752;29;20478;-85
2021/11/12 12:06:41;;;;;;;38.37;26.20;;;8.80;89.60;;;;;;4901682;29;20048;-85
2021/11/12 12:09:11;;;;;;;42.77;28.43;;;8.70;90.10;;;;;;4906979;29;20393;-85
2021/11/12 12:11:49;;;;;;;36.57;25.43;;;8.80;90.30;;;;;;4905350;29;20108;-85
2021/11/12 12:14:26;;;;;;;37.57;26.50;;;8.80;89.80;;;;;;4901681;29;20545;-83
2021/11/12 12:17:10;;;;;;;34.13;23.93;;;8.80;90.20;;;;;;4903929;29;20116;-84
2021/11/12 12:20:04;;;;;;;38.10;26.50;;;8.80;90.00;;;;;;4905361;29;20059;-84
2021/11/12 13:25:38;;;;;;;31.00;22.97;;;10.00;83.00;;;;;;4899404;29;20474;-83
2021/11/12 13:28:17;;;;;;;33.17;22.93;;;10.00;82.60;;;;;;4899013;29;20401;-83
2021/11/12 13:30:59;;;;;;;30.77;22.83;;;10.00;81.60;;;;;;4899420;29;20036;-83
2021/11/12 13:33:26;;;;;;;38.15;23.92;;;10.00;81.70;;;;;;4896823;29;20032;-84
2021/11/12 13:35:52;;;;;;;33.80;24.70;;;9.90;81.70;;;;;;4897824;29;20058;-83
2021/11/12 13:38:18;;;;;;;34.43;25.10;;;9.90;82.10;;;;;;4897064;29;20035;-82
2021/11/12 13:40:45;;;;;;;31.80;22.77;;;9.90;82.60;;;;;;4898565;29;20084;-83
2021/11/12 13:43:22;;;;;;;31.67;22.90;;;9.90;82.20;;;;;;4897478;29;20032;-84
2021/11/12 13:45:57;;;;;;;32.03;22.73;;;10.00;81.80;;;;;;4896506;29;20036;-83
2021/11/12 13:48:23;;;;;;;37.43;23.17;;;9.90;81.80;;;;;;4898244;29;20037;-83
2021/11/12 13:51:02;;;;;;;31.87;22.70;;;9.90;81.20;;;;;;4896876;29;20117;-84
2021/11/12 13:53:32;;;;;;;30.77;21.83;;;9.80;81.80;;;;;;4897968;29;20080;-83
2021/11/12 13:56:00;;;;;;;33.70;21.23;;;9.80;82.10;;;;;;4897893;29;20040;-82
2021/11/12 13:58:27;;;;;;;32.47;22.43;;;9.90;82.00;;;;;;4881128;29;20112;-83
2021/11/12 14:00:54;;;;;;;31.23;22.80;;;9.80;82.10;;;;;;4897699;29;20057;-82
2021/11/12 14:03:36;;;;;;;29.47;21.13;;;9.90;82.10;;;;;;4900384;29;20128;-83
2021/11/12 14:06:08;;;;;;;31.13;21.30;;;9.90;82.20;;;;;;4900085;29;20044;-84
2021/11/12 14:08:40;;;;;;;30.45;21.85;;;9.90;82.60;;;;;;4901259;29;20068;-83
2021/11/12 14:11:18;;;;;;;31.93;21.53;;;9.90;82.60;;;;;;4900191;29;20041;-82
2021/11/12 14:13:45;;;;;;;30.43;22.77;;;9.90;82.90;;;;;;4901184;29;20066;-81
2021/11/12 14:16:17;;;;;;;32.37;21.53;;;9.90;83.30;;;;;;4901376;29;20036;-82
2021/11/12 14:22:04;;;;;;;31.37;20.33;;;9.90;83.70;;;;;;4902154;29;20040;-84
2021/11/12 14:27:29;;;;;;;29.33;20.70;;;9.90;83.70;;;;;;4902280;29;20056;-83
2021/11/12 14:46:37;;;;;;;31.33;21.77;;;9.70;86.50;;;;;;4901677;29;20048;-85
2021/11/12 14:49:13;;;;;;;31.73;23.90;;;9.70;87.20;;;;;;4901003;29;20386;-84
2021/11/12 14:52:02;;;;;;;29.43;21.60;;;9.60;87.90;;;;;;4902023;29;20033;-84
2021/11/12 14:54:53;;;;;;;28.23;21.97;;;9.60;88.40;;;;;;4901175;29;20059;-85
2021/11/12 14:59:58;;;;;;;28.30;21.37;;;9.50;89.60;;;;;;4908196;29;20052;-85
2021/11/12 15:02:28;;;;;;;31.03;22.07;;;9.40;90.00;;;;;;4902013;29;20071;-85
2021/11/12 15:04:57;;;;;;;30.93;21.77;;;9.40;90.30;;;;;;4902815;29;20033;-84
2021/11/12 15:10:29;;;;;;;33.63;23.27;;;9.30;90.70;;;;;;4878889;29;20088;-85
2021/11/12 15:12:55;;;;;;;28.73;21.67;;;9.30;91.00;;;;;;4900395;29;20061;-84
2021/11/12 15:15:22;;;;;;;31.97;22.13;;;9.20;91.20;;;;;;4901288;29;20124;-85
2021/11/12 15:17:51;;;;;;;33.77;22.57;;;9.20;91.30;;;;;;4899854;29;20541;-84
2021/11/12 15:20:17;;;;;;;35.67;23.47;;;9.20;91.50;;;;;;4884957;29;20131;-85
2021/11/12 15:25:39;;;;;;;29.33;22.57;;;9.10;91.80;;;;;;4899649;29;20033;-85
2021/11/12 15:31:16;;;;;;;31.93;22.20;;;9.00;92.00;;;;;;4899463;29;20044;-85
2021/11/12 15:33:19;;;;;;;32.80;22.23;;;9.00;92.20;;;;;;4891928;29;20127;-84
2021/11/12 15:35:47;;;;;;;32.90;23.30;;;9.00;92.40;;;;;;4900436;29;20104;-84
2021/11/12 15:38:28;;;;;;;36.87;23.27;;;8.90;92.50;;;;;;4899455;29;20064;-83
2021/11/12 15:43:53;;;;;;;31.57;21.80;;;8.90;92.70;;;;;;4879808;29;20041;-84
2021/11/12 15:46:32;;;;;;;32.87;22.03;;;8.80;92.80;;;;;;4901104;29;20131;-85
2021/11/12 15:48:58;;;;;;;30.30;21.03;;;8.80;92.90;;;;;;4900115;29;20041;-85
2021/11/12 15:54:09;;;;;;;32.87;22.20;;;8.80;93.10;;;;;;4900312;29;20076;-85
2021/11/12 16:09:22;;;;;;;36.30;23.20;;;8.70;93.60;;;;;;4899894;29;20103;-83
2021/11/12 16:15:29;;;;;;;33.50;21.90;;;8.60;93.80;;;;;;4902187;29;20048;-81
2021/11/12 16:27:32;;;;;;;30.23;21.57;;;8.40;94.30;;;;;;4900317;29;20457;-85
2021/11/12 16:30:04;;;;;;;33.00;21.60;;;8.40;94.40;;;;;;4900638;29;20044;-85
2021/11/12 16:32:37;;;;;;;28.97;21.57;;;8.40;94.50;;;;;;4884007;29;20036;-85
2021/11/12 16:35:04;;;;;;;32.50;22.57;;;8.40;94.60;;;;;;4898618;29;20390;-84
2021/11/12 16:37:32;;;;;;;32.23;21.30;;;8.40;94.70;;;;;;4882140;29;20482;-86
2021/11/12 16:43:05;;;;;;;33.10;21.73;;;8.30;94.80;;;;;;4895665;29;20116;-85
2021/11/12 17:06:43;;;;;;;33.60;22.90;;;8.20;95.10;;;;;;4909455;29;20113;-85
2021/11/12 17:09:29;;;;;;;33.67;21.50;;;8.20;95.20;;;;;;4905670;29;20091;-84
2021/11/12 17:14:52;;;;;;;32.87;20.20;;;8.30;95.20;;;;;;4909376;29;20044;-86
2021/11/12 17:20:06;;;;;;;32.73;20.20;;;8.30;95.00;;;;;;4907606;29;20051;-85
2021/11/12 17:44:53;;;;;;;29.00;19.43;;;8.40;95.00;;;;;;4913884;29;20398;-86
2021/11/12 17:47:18;;;;;;;28.23;20.13;;;8.50;95.00;;;;;;4899609;29;20040;-85
2021/11/12 21:45:38;;;;;;;17.57;12.47;;;9.60;93.40;;;;;;4918343;29;20075;-85
2021/11/12 21:48:06;;;;;;;18.17;12.80;;;9.60;93.50;;;;;;4919281;29;20041;-84
2021/11/12 21:50:33;;;;;;;18.67;12.03;;;9.50;93.60;;;;;;4914145;29;20033;-85
2021/11/12 21:52:59;;;;;;;19.40;12.70;;;9.50;93.90;;;;;;4897014;29;20615;-84
2021/11/12 21:55:25;;;;;;;17.90;13.03;;;9.40;94.00;;;;;;4912420;29;20036;-81
2021/11/12 21:57:51;;;;;;;20.97;14.17;;;9.30;94.20;;;;;;4911920;29;20036;-81
2021/11/12 22:00:17;;;;;;;20.43;14.63;;;9.30;94.40;;;;;;4895200;29;20402;-83
2021/11/12 22:02:43;;;;;;;22.27;14.43;;;9.20;94.60;;;;;;4910734;29;20045;-81
2021/11/12 22:05:10;;;;;;;21.17;15.07;;;9.20;95.10;;;;;;4894637;29;20032;-84
2021/11/12 22:07:36;;;;;;;20.47;14.90;;;9.10;95.20;;;;;;4910558;29;20041;-83
2021/11/12 22:10:05;;;;;;;22.20;15.33;;;9.10;95.40;;;;;;4910941;29;20052;-83
2021/11/12 22:12:31;;;;;;;20.33;15.37;;;9.00;95.60;;;;;;4908755;29;20557;-81
2021/11/12 22:14:56;;;;;;;24.27;16.37;;;9.00;95.80;;;;;;4909011;29;20041;-83
2021/11/12 22:17:22;;;;;;;22.53;16.27;;;8.90;95.90;;;;;;4908980;29;20109;-84
2021/11/12 22:19:48;;;;;;;20.07;15.17;;;8.80;96.20;;;;;;4908530;29;20055;-83
2021/11/12 22:22:14;;;;;;;21.67;16.10;;;8.80;96.40;;;;;;4911706;29;20047;-83
2021/11/12 22:24:40;;;;;;;23.37;16.53;;;8.80;96.50;;;;;;4912983;29;20041;-85
2021/11/12 22:27:06;;;;;;;20.43;16.03;;;8.90;96.60;;;;;;4913946;29;20029;-83
2021/11/12 22:29:31;;;;;;;21.43;15.60;;;8.90;96.60;;;;;;4914161;29;20124;-83
2021/11/12 22:31:57;;;;;;;21.83;16.70;;;8.90;96.60;;;;;;4896054;29;20069;-81
2021/11/12 22:34:24;;;;;;;23.67;15.83;;;8.90;96.80;;;;;;4910628;29;20040;-83
2021/11/12 22:36:50;;;;;;;25.30;16.87;;;9.00;96.60;;;;;;4907869;29;20063;-84
2021/11/12 22:39:18;;;;;;;24.53;16.40;;;9.00;96.50;;;;;;4906924;29;20047;-82
2021/11/12 22:41:45;;;;;;;22.57;16.77;;;9.10;96.50;;;;;;4908245;29;20039;-84
2021/11/12 22:44:11;;;;;;;26.17;17.00;;;9.20;96.40;;;;;;4907925;29;20037;-83
2021/11/12 22:46:38;;;;;;;25.73;18.30;;;9.30;96.30;;;;;;4908330;29;20033;-84
2021/11/12 22:49:05;;;;;;;25.57;17.17;;;9.30;96.00;;;;;;4906599;29;20198;-81
2021/11/12 22:51:32;;;;;;;24.23;16.67;;;9.30;96.20;;;;;;4908057;29;20120;-82
2021/11/12 22:53:59;;;;;;;23.53;17.43;;;9.40;96.20;;;;;;4906205;29;20036;-84
2021/11/12 22:56:27;;;;;;;22.30;15.77;;;9.50;96.00;;;;;;4907578;29;20056;-83
2021/11/12 22:58:53;;;;;;;22.70;17.53;;;9.50;95.90;;;;;;4909811;29;20040;-83
2021/11/12 23:01:23;;;;;;;22.07;16.60;;;9.50;95.70;;;;;;4894624;29;20049;-81
2021/11/12 23:03:49;;;;;;;24.40;16.87;;;9.50;95.60;;;;;;4910947;29;20127;-84
2021/11/12 23:06:15;;;;;;;23.30;16.50;;;9.50;95.60;;;;;;4911115;29;20044;-84
2021/11/12 23:08:41;;;;;;;23.47;17.67;;;9.50;95.30;;;;;;4910351;29;20100;-81
2021/11/12 23:11:07;;;;;;;22.53;17.50;;;9.50;95.30;;;;;;4911119;29;20045;-82
2021/11/12 23:13:33;;;;;;;22.50;16.83;;;9.50;95.40;;;;;;4909979;29;20390;-80